Time;durP1;ratioP1;P1;durP2;ratioP2;P2;SDS_P1;SDS_P2;PMS_P1;PMS_P2;Temp;Humidity;BMP_temperature;BMP_pressure;BME280_temperature;BME280_humidity;BME280_pressure;Samples;Min_cycle;Max_cycle;Signal;HPM_P1;HPM_P2
2022/09/10 00:00:54;;;;;;;6.37;3.40;;;;;;;9.90;80.07;100089.31;1715066;83;21042;-77
2022/09/10 00:03:21;;;;;;;5.37;3.47;;;;;;;9.88;80.46;100090.23;1714636;83;21079;-79
2022/09/10 00:05:48;;;;;;;5.05;2.90;;;;;;;9.81;80.74;100087.73;1715017;83;21114;-79
2022/09/10 00:08:15;;;;;;;10.78;3.75;;;;;;;9.78;81.11;100094.36;1714881;83;21212;-81
2022/09/10 00:10:44;;;;;;;4.40;2.87;;;;;;;9.76;81.48;100097.94;1714928;83;22062;-81
2022/09/10 00:13:12;;;;;;;6.28;3.45;;;;;;;9.75;81.35;100098.39;1714378;83;21094;-80
2022/09/10 00:15:49;;;;;;;7.78;3.60;;;;;;;9.76;81.47;100092.68;1714685;83;21086;-81
2022/09/10 00:18:16;;;;;;;6.00;3.20;;;;;;;9.76;81.72;100093.99;1714511;83;21018;-80
2022/09/10 00:20:49;;;;;;;4.42;2.90;;;;;;;9.75;81.89;100094.87;1714180;82;21039;-81
2022/09/10 00:23:18;;;;;;;6.90;3.12;;;;;;;9.73;82.26;100086.17;1714510;83;21210;-82
2022/09/10 00:25:45;;;;;;;8.90;2.87;;;;;;;9.70;82.50;100091.48;1715344;83;21133;-81
2022/09/10 00:28:12;;;;;;;6.72;3.22;;;;;;;9.66;83.02;100081.04;1714832;83;21121;-79
2022/09/10 00:30:46;;;;;;;4.95;3.10;;;;;;;9.63;83.54;100087.70;1714411;83;21087;-78
2022/09/10 00:33:14;;;;;;;5.37;2.90;;;;;;;9.61;83.83;100080.73;1714910;83;21118;-81
2022/09/10 00:35:41;;;;;;;4.80;2.95;;;;;;;9.60;84.07;100085.13;1714690;83;21208;-81
2022/09/10 00:38:08;;;;;;;5.60;3.02;;;;;;;9.60;84.43;100093.44;1714715;83;21157;-80
2022/09/10 00:40:36;;;;;;;4.45;2.95;;;;;;;9.58;84.82;100093.51;1714832;83;21608;-79
2022/09/10 00:43:05;;;;;;;3.60;2.87;;;;;;;9.57;85.03;100091.77;1714901;83;21129;-79
2022/09/10 00:45:36;;;;;;;5.15;2.80;;;;;;;9.57;85.46;100086.51;1714663;83;21051;-80
2022/09/10 00:48:04;;;;;;;4.45;2.80;;;;;;;9.56;85.95;100078.20;1713728;83;21131;-81
2022/09/10 00:50:34;;;;;;;3.95;3.00;;;;;;;9.53;86.18;100069.09;1715111;83;21145;-82
2022/09/10 00:53:02;;;;;;;4.37;2.62;;;;;;;9.50;86.63;100069.16;1714630;83;21059;-81
2022/09/10 00:55:30;;;;;;;3.42;2.42;;;;;;;9.48;86.92;100065.67;1689970;83;21660;-80
2022/09/10 00:57:59;;;;;;;7.45;2.80;;;;;;;9.47;87.13;100061.34;1714453;83;21007;-82
2022/09/10 01:00:26;;;;;;;2.85;2.65;;;;;;;9.47;87.55;100069.22;1714711;83;21178;-81
2022/09/10 01:02:53;;;;;;;3.10;2.80;;;;;;;9.46;87.69;100067.48;1714143;83;21078;-80
2022/09/10 01:05:21;;;;;;;2.85;2.55;;;;;;;9.46;87.94;100062.22;1689061;83;22058;-79
2022/09/10 01:07:48;;;;;;;4.95;2.70;;;;;;;9.45;88.24;100063.99;1714458;83;21062;-79
2022/09/10 01:10:27;;;;;;;3.58;2.50;;;;;;;9.40;88.38;100064.54;1714686;83;21620;-83
2022/09/10 01:13:14;;;;;;;3.90;2.77;;;;;;;9.38;88.62;100058.89;1715061;83;21848;-81
2022/09/10 01:15:55;;;;;;;2.95;2.52;;;;;;;9.38;88.75;100054.95;1714927;83;20992;-79
2022/09/10 01:18:43;;;;;;;2.70;2.50;;;;;;;9.40;88.81;100065.86;1714861;83;21539;-79
2022/09/10 01:21:23;;;;;;;5.15;2.83;;;;;;;9.39;88.93;100058.00;1710688;82;21090;-79
2022/09/10 01:24:19;;;;;;;2.55;2.33;;;;;;;9.39;89.29;100056.23;1686818;83;21027;-79
2022/09/10 01:27:31;;;;;;;10.45;3.15;;;;;;;9.39;89.39;100062.80;1708800;83;21795;-83
2022/09/10 01:30:23;;;;;;;3.02;2.47;;;;;;;9.40;89.49;100065.00;1709408;83;21091;-80
2022/09/10 01:33:00;;;;;;;4.30;2.67;;;;;;;9.40;89.72;100071.56;1708929;83;21071;-80
2022/09/10 01:35:43;;;;;;;5.62;2.80;;;;;;;9.37;89.78;100061.97;1709455;83;21511;-81
2022/09/10 01:38:15;;;;;;;4.67;3.02;;;;;;;9.39;90.06;100065.88;1709165;83;21075;-80
2022/09/10 01:40:42;;;;;;;5.78;2.62;;;;;;;9.37;90.25;100065.06;1709535;83;21125;-82
2022/09/10 01:43:11;;;;;;;5.37;2.67;;;;;;;9.36;90.41;100066.80;1687355;83;21090;-82
2022/09/10 01:45:57;;;;;;;3.85;2.83;;;;;;;9.36;90.47;100068.56;1678440;84;21033;-80
2022/09/10 01:48:32;;;;;;;4.12;2.45;;;;;;;9.37;90.64;100057.18;1656832;84;21008;-78
2022/09/10 01:51:28;;;;;;;4.17;3.00;;;;;;;9.35;90.94;100053.27;1679674;85;21625;-78
2022/09/10 01:54:12;;;;;;;4.25;2.42;;;;;;;9.33;91.22;100055.07;1679691;84;21279;-79
2022/09/10 01:57:11;;;;;;;4.10;2.98;;;;;;;9.34;91.50;100054.16;1679747;85;21138;-78
2022/09/10 02:00:10;;;;;;;3.30;2.45;;;;;;;9.31;91.72;100047.65;1679686;85;21590;-79
2022/09/10 02:03:01;;;;;;;3.25;2.50;;;;;;;9.31;91.93;100048.96;1679621;84;21603;-79
2022/09/10 02:05:30;;;;;;;4.03;2.72;;;;;;;9.29;92.16;100051.61;1687010;85;21502;-79
2022/09/10 02:08:02;;;;;;;2.77;2.15;;;;;;;9.33;92.27;100043.68;1672988;85;21184;-79
2022/09/10 02:10:30;;;;;;;2.55;2.35;;;;;;;9.36;92.31;100038.37;1686960;85;21499;-80
2022/09/10 02:12:57;;;;;;;2.77;2.58;;;;;;;9.37;92.41;100029.61;1686803;84;21126;-79
2022/09/10 02:15:28;;;;;;;4.20;2.22;;;;;;;9.36;92.43;100031.80;1685350;84;21118;-79
2022/09/10 02:17:57;;;;;;;3.10;2.70;;;;;;;9.39;92.50;100031.74;1685316;84;21090;-80
2022/09/10 02:20:24;;;;;;;2.98;2.60;;;;;;;9.40;92.54;100025.61;1688223;84;21617;-78
2022/09/10 02:22:54;;;;;;;4.10;2.60;;;;;;;9.40;92.68;100028.23;1692181;84;21000;-78
2022/09/10 02:25:20;;;;;;;3.30;2.80;;;;;;;9.39;92.82;100015.98;1713166;83;21058;-77
2022/09/10 02:27:48;;;;;;;2.98;2.50;;;;;;;9.40;93.05;100015.10;1684271;85;21530;-79
2022/09/10 02:30:15;;;;;;;2.87;2.60;;;;;;;9.38;93.19;100013.81;1684323;84;21202;-81
2022/09/10 02:32:42;;;;;;;2.40;2.20;;;;;;;9.36;93.31;100009.02;1684309;85;21644;-80
2022/09/10 02:35:09;;;;;;;2.72;2.50;;;;;;;9.34;93.72;100004.72;1692194;83;21070;-82
2022/09/10 02:37:36;;;;;;;3.12;2.80;;;;;;;9.35;93.87;100011.71;1692549;83;21027;-79
2022/09/10 02:40:04;;;;;;;4.65;2.42;;;;;;;9.34;93.96;100002.09;1692395;84;21110;-78
2022/09/10 02:42:32;;;;;;;3.45;2.40;;;;;;;9.34;94.10;100000.31;1692181;83;21099;-79
2022/09/10 02:44:59;;;;;;;3.00;2.30;;;;;;;9.34;94.19;100002.09;1692290;84;21285;-81
2022/09/10 02:47:26;;;;;;;4.85;2.50;;;;;;;9.34;94.41;100002.09;1692068;83;21561;-78
2022/09/10 02:49:53;;;;;;;2.40;2.20;;;;;;;9.34;94.56;99991.59;1692360;84;21020;-79
2022/09/10 02:52:21;;;;;;;2.90;2.17;;;;;;;9.34;94.74;99991.59;1692213;83;20980;-82
2022/09/10 02:54:51;;;;;;;2.75;2.55;;;;;;;9.32;94.87;99988.14;1692336;84;21016;-79
2022/09/10 02:57:19;;;;;;;2.40;2.20;;;;;;;9.33;95.04;99989.84;1692407;84;21259;-80
2022/09/10 02:59:47;;;;;;;2.62;2.15;;;;;;;9.34;95.17;99983.70;1692606;84;21569;-80
2022/09/10 03:02:14;;;;;;;2.75;2.55;;;;;;;9.35;95.33;99977.57;1692326;83;21079;-79
2022/09/10 03:04:40;;;;;;;2.50;2.30;;;;;;;9.34;95.52;99970.13;1692474;83;21074;-78
2022/09/10 03:07:07;;;;;;;2.00;1.90;;;;;;;9.35;95.68;99973.63;1692215;84;21004;-82
2022/09/10 03:09:35;;;;;;;4.00;2.37;;;;;;;9.35;95.73;99964.44;1692064;83;21302;-80
2022/09/10 03:12:01;;;;;;;2.83;2.60;;;;;;;9.38;95.83;99969.59;1692806;84;21070;-81
2022/09/10 03:14:30;;;;;;;2.58;2.27;;;;;;;9.37;95.91;99979.25;1692400;83;21051;-78
2022/09/10 03:16:57;;;;;;;2.83;1.87;;;;;;;9.38;96.02;99969.17;1692145;83;21166;-80
2022/09/10 03:19:24;;;;;;;2.33;2.12;;;;;;;9.40;96.16;99967.83;1692068;84;21581;-80
2022/09/10 03:21:51;;;;;;;4.37;2.30;;;;;;;9.38;96.22;99969.59;1705671;83;21877;-82
2022/09/10 03:24:18;;;;;;;7.25;2.30;;;;;;;9.40;96.27;99973.08;1710266;83;21122;-79
2022/09/10 03:26:45;;;;;;;2.65;2.45;;;;;;;9.39;96.43;99966.09;1710392;83;21011;-79
2022/09/10 03:29:12;;;;;;;2.25;1.98;;;;;;;9.41;96.54;99966.91;1710157;83;21016;-78
2022/09/10 03:31:39;;;;;;;2.52;1.87;;;;;;;9.43;96.71;99969.04;1710259;83;21147;-78
2022/09/10 03:34:05;;;;;;;2.55;2.35;;;;;;;9.44;96.81;99970.33;1710159;83;21645;-78
2022/09/10 03:36:32;;;;;;;2.05;1.95;;;;;;;9.45;96.91;99973.84;1710223;83;21475;-82
2022/09/10 03:38:59;;;;;;;2.47;2.27;;;;;;;9.44;97.10;99974.72;1710346;83;21000;-77
2022/09/10 03:41:27;;;;;;;2.30;2.08;;;;;;;9.44;97.15;99972.95;1710171;83;21024;-77
2022/09/10 03:43:56;;;;;;;4.90;2.20;;;;;;;9.46;97.26;99978.17;1709916;83;21082;-80
2022/09/10 03:46:23;;;;;;;2.00;1.90;;;;;;;9.46;97.35;99975.55;1709986;83;21251;-81
2022/09/10 03:48:51;;;;;;;3.02;2.00;;;;;;;9.48;97.45;99973.74;1710083;83;21134;-78
2022/09/10 03:51:19;;;;;;;2.33;2.12;;;;;;;9.49;97.43;99964.52;1691434;83;21142;-79
2022/09/10 03:53:46;;;;;;;2.70;1.82;;;;;;;9.52;97.47;99974.10;1710418;83;21020;-80
2022/09/10 03:56:18;;;;;;;2.00;1.90;;;;;;;9.53;97.59;99964.02;1710058;83;22134;-80
2022/09/10 03:58:44;;;;;;;2.40;1.85;;;;;;;9.52;97.66;99963.59;1710085;83;21625;-81
2022/09/10 04:01:10;;;;;;;2.67;2.00;;;;;;;9.54;97.70;99965.73;1709899;83;22225;-79
2022/09/10 04:03:39;;;;;;;2.00;1.90;;;;;;;9.55;97.71;99962.22;1710167;83;21103;-80
2022/09/10 04:06:11;;;;;;;2.00;1.90;;;;;;;9.55;97.76;99949.08;1710225;83;20985;-78
2022/09/10 04:08:38;;;;;;;3.27;2.00;;;;;;;9.55;97.99;99958.28;1710322;83;21111;-82
2022/09/10 04:11:07;;;;;;;2.10;1.95;;;;;;;9.55;98.21;99945.57;1710737;83;22351;-82
2022/09/10 04:13:33;;;;;;;2.58;1.95;;;;;;;9.55;98.38;99957.39;1710218;83;21601;-80
2022/09/10 04:16:01;;;;;;;3.17;2.37;;;;;;;9.54;98.53;99953.91;1710320;83;21070;-79
2022/09/10 04:18:30;;;;;;;2.85;2.00;;;;;;;9.54;98.75;99946.03;1710181;83;21058;-79
2022/09/10 04:20:57;;;;;;;2.17;2.08;;;;;;;9.55;98.74;99950.39;1711888;83;21695;-79
2022/09/10 04:23:24;;;;;;;2.02;1.92;;;;;;;9.55;98.82;99951.71;1716315;83;21846;-80
2022/09/10 04:25:51;;;;;;;2.10;2.00;;;;;;;9.55;98.88;99949.08;1718197;83;20992;-79
2022/09/10 04:28:18;;;;;;;1.92;1.80;;;;;;;9.55;98.97;99944.25;1718164;83;21059;-79
2022/09/10 04:30:46;;;;;;;2.22;2.12;;;;;;;9.55;99.08;99939.00;1717251;83;21055;-81
2022/09/10 04:33:14;;;;;;;2.10;1.70;;;;;;;9.55;99.10;99939.89;1718167;83;21114;-81
2022/09/10 04:35:42;;;;;;;1.80;1.70;;;;;;;9.58;99.16;99945.08;1718119;83;21197;-81
2022/09/10 04:38:10;;;;;;;1.98;1.87;;;;;;;9.59;99.21;99934.95;1693731;83;20972;-80
2022/09/10 04:40:38;;;;;;;3.08;1.82;;;;;;;9.57;99.30;99934.14;1718351;83;21011;-79
2022/09/10 04:43:05;;;;;;;1.57;1.47;;;;;;;9.57;99.31;99938.08;1717963;83;21019;-80
2022/09/10 04:45:34;;;;;;;1.85;1.67;;;;;;;9.58;99.34;99920.12;1718327;83;21989;-80
2022/09/10 04:48:01;;;;;;;2.47;1.90;;;;;;;9.59;99.42;99928.39;1718401;83;22127;-80
2022/09/10 04:50:31;;;;;;;2.02;1.85;;;;;;;9.58;99.49;99924.06;1717823;83;21051;-78
2022/09/10 04:53:09;;;;;;;2.02;1.70;;;;;;;9.58;99.48;99925.37;1715999;83;21109;-80
2022/09/10 04:55:36;;;;;;;1.50;1.47;;;;;;;9.59;99.52;99931.02;1718313;83;21040;-80
2022/09/10 04:58:02;;;;;;;1.95;1.85;;;;;;;9.60;99.56;99930.56;1718038;83;21085;-78
2022/09/10 05:00:29;;;;;;;1.45;1.37;;;;;;;9.60;99.61;99922.25;1717944;83;21087;-77
2022/09/10 05:02:56;;;;;;;1.82;1.72;;;;;;;9.63;99.68;99927.44;1717293;83;21015;-80
2022/09/10 05:05:23;;;;;;;1.25;1.22;;;;;;;9.64;99.63;99925.66;1718262;83;21133;-81
2022/09/10 05:07:49;;;;;;;1.67;1.57;;;;;;;9.63;99.59;99924.81;1717950;83;21133;-80
2022/09/10 05:10:17;;;;;;;1.80;1.70;;;;;;;9.63;99.57;99918.23;1716934;83;21015;-79
2022/09/10 05:12:44;;;;;;;1.75;1.65;;;;;;;9.64;99.50;99918.63;1718139;83;21708;-78
2022/09/10 05:15:11;;;;;;;1.60;1.50;;;;;;;9.66;99.41;99924.70;1718071;83;21051;-80
2022/09/10 05:17:39;;;;;;;1.70;1.60;;;;;;;9.66;99.34;99918.14;1716927;83;21007;-79
2022/09/10 05:20:09;;;;;;;1.60;1.50;;;;;;;9.66;99.36;99913.34;1718169;83;21098;-81
2022/09/10 05:22:37;;;;;;;3.33;1.40;;;;;;;9.65;99.25;99914.27;1698075;83;21098;-80
2022/09/10 05:25:05;;;;;;;1.70;1.60;;;;;;;9.66;99.19;99922.54;1692687;84;21068;-79
2022/09/10 05:27:33;;;;;;;1.95;1.82;;;;;;;9.63;99.33;99915.61;1692238;83;21087;-79
2022/09/10 05:30:00;;;;;;;1.60;1.50;;;;;;;9.63;99.68;99915.61;1692358;84;21097;-81
2022/09/10 05:32:28;;;;;;;1.50;1.40;;;;;;;9.66;99.58;99915.52;1692222;84;21106;-82
2022/09/10 05:34:55;;;;;;;1.87;1.52;;;;;;;9.67;99.48;99914.63;1692253;84;21130;-78
2022/09/10 05:37:22;;;;;;;1.40;1.40;;;;;;;9.67;99.39;99908.05;1692618;83;21107;-81
2022/09/10 05:39:49;;;;;;;3.85;1.92;;;;;;;9.67;99.42;99915.94;1692197;83;21016;-81
2022/09/10 05:42:15;;;;;;;2.60;2.00;;;;;;;9.67;99.43;99909.83;1692548;84;21082;-79
2022/09/10 05:44:42;;;;;;;2.10;2.00;;;;;;;9.67;99.39;99909.37;1692053;84;21090;-81
2022/09/10 05:47:09;;;;;;;2.15;2.00;;;;;;;9.69;99.32;99911.96;1692478;84;21106;-80
2022/09/10 05:49:36;;;;;;;2.30;2.20;;;;;;;9.67;99.35;99919.88;1692210;83;21142;-79
2022/09/10 05:52:03;;;;;;;2.40;2.25;;;;;;;9.67;99.42;99914.63;1692081;83;21063;-79
2022/09/10 05:54:30;;;;;;;1.90;1.80;;;;;;;9.67;99.41;99909.37;1692312;84;21015;-79
2022/09/10 05:56:57;;;;;;;2.17;2.02;;;;;;;9.69;99.25;99918.53;1692196;83;21102;-80
2022/09/10 05:59:24;;;;;;;2.20;2.00;;;;;;;9.70;99.23;99916.33;1692360;84;21012;-79
2022/09/10 06:01:52;;;;;;;2.08;1.85;;;;;;;9.72;99.19;99924.17;1692454;84;21259;-82
2022/09/10 06:04:20;;;;;;;2.22;2.02;;;;;;;9.72;99.07;99936.85;1692153;84;21075;-81
2022/09/10 06:06:48;;;;;;;1.67;1.57;;;;;;;9.71;98.90;99919.81;1692122;84;21087;-79
2022/09/10 06:09:16;;;;;;;1.70;1.60;;;;;;;9.69;98.73;99927.73;1692150;83;21103;-82
2022/09/10 06:12:05;;;;;;;2.00;1.80;;;;;;;9.67;98.59;99925.59;1691840;84;21514;-83
2022/09/10 06:14:32;;;;;;;1.95;1.85;;;;;;;9.67;98.65;99928.22;1692117;84;21542;-80
2022/09/10 06:16:58;;;;;;;1.60;1.50;;;;;;;9.68;98.66;99927.30;1692524;83;21016;-80
2022/09/10 06:19:27;;;;;;;1.95;1.80;;;;;;;9.66;98.67;99926.02;1692503;84;21641;-79
2022/09/10 06:21:55;;;;;;;2.02;1.92;;;;;;;9.64;98.72;99927.83;1699330;83;21068;-81
2022/09/10 06:24:23;;;;;;;1.72;1.60;;;;;;;9.63;98.99;99934.00;1710127;83;21087;-81
2022/09/10 06:26:51;;;;;;;1.82;1.72;;;;;;;9.62;99.11;99928.32;1709590;83;21150;-78
2022/09/10 06:29:18;;;;;;;1.85;1.75;;;;;;;9.59;98.86;99932.33;1710327;83;21115;-78
2022/09/10 06:31:46;;;;;;;2.10;1.90;;;;;;;9.56;98.80;99923.20;1710265;83;21150;-81
2022/09/10 06:34:15;;;;;;;2.72;1.80;;;;;;;9.56;98.75;99924.52;1710434;83;21095;-80
2022/09/10 06:36:42;;;;;;;1.82;1.70;;;;;;;9.57;98.74;99924.95;1710223;83;21024;-79
2022/09/10 06:39:09;;;;;;;1.67;1.57;;;;;;;9.58;98.91;99924.48;1710174;83;21972;-81
2022/09/10 06:41:39;;;;;;;1.95;1.80;;;;;;;9.58;98.90;99920.12;1709055;83;21091;-79
2022/09/10 06:44:08;;;;;;;2.10;2.00;;;;;;;9.54;98.81;99913.19;1709905;83;21050;-81
2022/09/10 06:46:39;;;;;;;2.00;1.90;;;;;;;9.52;98.74;99905.80;1710180;83;21060;-78
2022/09/10 06:49:10;;;;;;;2.50;2.30;;;;;;;9.50;98.87;99904.98;1710100;83;21054;-79
2022/09/10 06:51:38;;;;;;;2.50;2.30;;;;;;;9.49;98.94;99911.13;1709998;83;21931;-81
2022/09/10 06:54:07;;;;;;;2.20;2.00;;;;;;;9.49;99.01;99920.32;1710296;83;21538;-80
2022/09/10 06:56:35;;;;;;;2.77;2.58;;;;;;;9.52;99.01;99911.06;1710305;83;21067;-80
2022/09/10 06:59:03;;;;;;;2.98;2.30;;;;;;;9.55;99.11;99903.53;1710345;83;21067;-82
2022/09/10 07:01:31;;;;;;;3.70;2.50;;;;;;;9.54;99.00;99902.69;1710058;83;21052;-81
2022/09/10 07:04:01;;;;;;;6.15;2.62;;;;;;;9.54;99.14;99913.19;1710206;83;21259;-76
2022/09/10 07:06:33;;;;;;;2.60;2.40;;;;;;;9.54;99.16;99917.13;1710487;83;21130;-78
2022/09/10 07:09:03;;;;;;;4.92;2.85;;;;;;;9.56;99.05;99916.64;1708044;83;42035;-80
2022/09/10 07:11:31;;;;;;;3.27;2.90;;;;;;;9.56;99.15;99910.07;1710081;83;21078;-81
2022/09/10 07:14:00;;;;;;;3.85;2.50;;;;;;;9.56;99.18;99910.07;1710159;83;21019;-80
2022/09/10 07:16:29;;;;;;;9.20;2.65;;;;;;;9.56;99.03;99917.95;1710069;83;21122;-81
2022/09/10 07:18:58;;;;;;;4.72;2.92;;;;;;;9.58;98.68;99925.37;1710596;83;21055;-80
2022/09/10 07:21:36;;;;;;;2.92;2.72;;;;;;;9.53;99.11;99919.37;1710284;83;21673;-78
2022/09/10 07:24:05;;;;;;;2.75;2.55;;;;;;;9.50;99.35;99918.12;1710698;82;21004;-82
2022/09/10 07:26:33;;;;;;;3.12;2.92;;;;;;;9.46;99.15;99918.64;1710318;83;21063;-80
2022/09/10 07:29:01;;;;;;;2.52;2.40;;;;;;;9.47;98.87;99919.50;1710269;83;21581;-80
2022/09/10 07:31:30;;;;;;;3.50;3.20;;;;;;;9.46;98.52;99917.76;1710030;83;21668;-78
2022/09/10 07:34:02;;;;;;;3.60;3.40;;;;;;;9.44;98.34;99919.56;1710163;83;21036;-78
2022/09/10 07:36:30;;;;;;;3.95;2.87;;;;;;;9.42;98.41;99917.44;1710262;83;20995;-81
2022/09/10 07:39:02;;;;;;;3.05;2.85;;;;;;;9.43;98.41;99919.14;1710303;83;21083;-80
2022/09/10 07:41:34;;;;;;;2.95;2.83;;;;;;;9.44;98.38;99909.06;1710242;83;21536;-78
2022/09/10 07:44:02;;;;;;;3.05;2.85;;;;;;;9.43;98.39;99908.20;1709919;83;21067;-81
2022/09/10 07:46:37;;;;;;;3.22;2.98;;;;;;;9.43;98.55;99912.58;1710251;83;21102;-80
2022/09/10 07:49:08;;;;;;;3.30;3.10;;;;;;;9.39;98.84;99913.56;1710322;83;21486;-79
2022/09/10 07:51:34;;;;;;;3.55;3.25;;;;;;;9.39;99.04;99910.94;1710101;83;21079;-82
2022/09/10 07:54:02;;;;;;;3.62;3.33;;;;;;;9.38;99.08;99914.45;1710161;83;21190;-79
2022/09/10 07:56:33;;;;;;;3.25;3.00;;;;;;;9.37;99.07;99916.68;1709600;83;21522;-80
2022/09/10 07:59:01;;;;;;;3.40;3.20;;;;;;;9.41;99.10;99917.00;1710380;83;21055;-84
2022/09/10 08:01:30;;;;;;;3.12;2.92;;;;;;;9.42;98.96;99911.72;1710148;83;21044;-80
2022/09/10 08:03:58;;;;;;;3.40;3.20;;;;;;;9.41;98.77;99901.25;1710227;83;21544;-79
2022/09/10 08:06:25;;;;;;;4.10;3.80;;;;;;;9.41;98.72;99907.36;1710012;83;21463;-81
2022/09/10 08:08:52;;;;;;;3.33;3.12;;;;;;;9.43;98.79;99896.81;1710251;83;21124;-80
2022/09/10 08:11:20;;;;;;;3.20;2.90;;;;;;;9.42;98.66;99897.73;1710086;83;21047;-81
2022/09/10 08:13:50;;;;;;;3.55;3.35;;;;;;;9.43;98.62;99908.64;1709915;83;21043;-79
2022/09/10 08:16:21;;;;;;;4.92;3.17;;;;;;;9.42;98.79;99903.84;1710035;83;21048;-80
2022/09/10 08:18:54;;;;;;;3.75;3.47;;;;;;;9.43;98.91;99900.75;1710188;83;21928;-81
2022/09/10 08:21:21;;;;;;;3.75;3.50;;;;;;;9.45;98.74;99898.52;1691704;83;21064;-78
2022/09/10 08:23:56;;;;;;;4.05;3.75;;;;;;;9.46;98.69;99896.75;1716260;83;21039;-80
2022/09/10 08:26:24;;;;;;;4.25;3.87;;;;;;;9.46;98.62;99895.01;1717945;83;21090;-82
2022/09/10 08:28:52;;;;;;;4.62;3.80;;;;;;;9.42;98.36;99892.02;1712601;83;21927;-80
2022/09/10 08:31:19;;;;;;;4.10;3.80;;;;;;;9.37;98.19;99898.30;1718031;83;21116;-79
2022/09/10 08:33:49;;;;;;;4.53;4.03;;;;;;;9.34;98.18;99894.42;1715759;83;21058;-81
2022/09/10 08:36:17;;;;;;;4.05;3.75;;;;;;;9.29;98.18;99889.27;1717089;83;21431;-79
2022/09/10 08:38:45;;;;;;;3.87;3.62;;;;;;;9.25;98.18;99892.88;1717875;83;22163;-81
2022/09/10 08:41:26;;;;;;;4.17;3.77;;;;;;;9.26;98.36;99884.97;1693136;83;21984;-79
2022/09/10 08:44:02;;;;;;;5.80;4.08;;;;;;;9.28;98.42;99882.31;1718167;83;21767;-80
2022/09/10 08:46:32;;;;;;;4.50;4.10;;;;;;;9.30;98.49;99876.11;1717985;83;21098;-79
2022/09/10 08:49:35;;;;;;;4.30;3.90;;;;;;;9.32;98.54;99869.97;1718043;83;20961;-79
2022/09/10 08:52:20;;;;;;;5.62;4.20;;;;;;;9.34;98.45;99874.73;1674354;85;21079;-81
2022/09/10 08:55:20;;;;;;;5.85;4.30;;;;;;;9.34;98.46;99869.48;1720409;83;21121;-80
2022/09/10 08:57:53;;;;;;;4.45;4.08;;;;;;;9.33;98.38;99866.42;1698643;83;21269;-80
2022/09/10 09:00:23;;;;;;;4.22;3.92;;;;;;;9.31;98.42;99861.20;1723601;83;21021;-76
2022/09/10 09:03:17;;;;;;;5.08;4.15;;;;;;;9.30;98.50;99860.36;1724064;82;21148;-80
2022/09/10 09:05:57;;;;;;;4.78;4.37;;;;;;;9.29;98.53;99866.49;1724935;83;21140;-79
2022/09/10 09:08:33;;;;;;;4.30;4.00;;;;;;;9.30;98.63;99875.25;1723823;82;21125;-79
2022/09/10 09:11:36;;;;;;;4.45;3.92;;;;;;;9.28;98.55;99862.16;1724743;83;21125;-80
2022/09/10 09:14:33;;;;;;;4.85;4.45;;;;;;;9.29;98.53;99859.92;1724547;83;21066;-79
2022/09/10 09:17:43;;;;;;;4.87;4.40;;;;;;;9.29;98.53;99862.55;1722485;82;21176;-80
2022/09/10 09:20:40;;;;;;;5.40;4.03;;;;;;;9.27;98.56;99860.42;1700330;83;21512;-79
2022/09/10 09:23:22;;;;;;;4.33;3.92;;;;;;;9.26;98.51;99862.66;1718915;83;21078;-78
2022/09/10 09:26:06;;;;;;;4.50;4.20;;;;;;;9.21;98.59;99854.02;1709168;83;21123;-78
2022/09/10 09:28:59;;;;;;;5.10;4.58;;;;;;;9.21;98.79;99854.45;1709109;83;21039;-79
2022/09/10 09:31:29;;;;;;;6.37;4.60;;;;;;;9.23;98.94;99853.96;1709152;83;21067;-79
2022/09/10 09:34:23;;;;;;;5.17;4.70;;;;;;;9.27;98.86;99853.00;1709188;83;21086;-78
2022/09/10 09:36:55;;;;;;;5.20;4.78;;;;;;;9.29;98.92;99855.98;1709472;83;21565;-78
2022/09/10 09:40:04;;;;;;;5.53;4.92;;;;;;;9.29;99.01;99852.52;1709207;83;21103;-75
2022/09/10 09:42:52;;;;;;;5.55;5.05;;;;;;;9.27;99.13;99851.23;1709069;83;21609;-79
2022/09/10 09:45:27;;;;;;;4.90;4.50;;;;;;;9.29;99.07;99855.98;1709501;83;21514;-79
2022/09/10 09:47:54;;;;;;;5.70;5.00;;;;;;;9.29;99.14;99846.80;1709317;83;21126;-78
2022/09/10 09:50:21;;;;;;;6.90;4.50;;;;;;;9.30;99.17;99841.97;1709558;83;21070;-78
2022/09/10 09:52:48;;;;;;;5.33;4.83;;;;;;;9.32;99.33;99846.34;1709214;83;21106;-79
2022/09/10 09:55:28;;;;;;;5.03;4.40;;;;;;;9.34;99.42;99849.78;1709565;83;21121;-78
2022/09/10 09:58:27;;;;;;;5.12;4.72;;;;;;;9.37;99.51;99844.46;1709151;83;21062;-77
2022/09/10 10:01:08;;;;;;;4.90;4.50;;;;;;;9.39;99.55;99849.22;1704020;83;21022;-77
2022/09/10 10:03:57;;;;;;;4.87;4.47;;;;;;;9.40;99.69;99839.99;1709100;83;21137;-78
2022/09/10 10:06:31;;;;;;;4.65;4.25;;;;;;;9.43;99.75;99828.53;1709282;83;21140;-77
2022/09/10 10:09:04;;;;;;;4.60;4.20;;;;;;;9.43;99.77;99824.59;1709254;83;21117;-77
2022/09/10 10:12:07;;;;;;;6.90;4.35;;;;;;;9.41;99.84;99819.84;1709336;83;21094;-80
2022/09/10 10:14:41;;;;;;;4.60;4.20;;;;;;;9.43;99.90;99823.28;1708999;83;21596;-82
2022/09/10 10:17:32;;;;;;;4.30;4.00;;;;;;;9.46;100.00;99821.47;1709226;83;21904;-79
2022/09/10 10:20:07;;;;;;;5.28;4.60;;;;;;;9.49;100.00;99819.20;1709343;83;21824;-79
2022/09/10 10:22:36;;;;;;;4.70;4.30;;;;;;;9.46;100.00;99808.34;1709193;83;21121;-80
2022/09/10 10:25:07;;;;;;;3.83;3.62;;;;;;;9.47;100.00;99810.50;1709047;83;21043;-77
2022/09/10 10:27:36;;;;;;;4.83;3.92;;;;;;;9.50;100.00;99803.86;1706769;83;21225;-80
2022/09/10 10:30:20;;;;;;;4.20;3.80;;;;;;;9.51;100.00;99808.19;1709117;83;21145;-79
2022/09/10 10:32:55;;;;;;;4.05;3.50;;;;;;;9.53;100.00;99800.28;1709171;83;21165;-80
2022/09/10 10:35:45;;;;;;;3.92;3.62;;;;;;;9.53;100.00;99799.84;1709164;83;22056;-79
2022/09/10 10:38:32;;;;;;;3.35;3.12;;;;;;;9.56;100.00;99801.05;1710965;83;21077;-81
2022/09/10 10:41:29;;;;;;;3.25;3.05;;;;;;;9.58;100.00;99794.45;1709309;83;21038;-79
2022/09/10 10:44:25;;;;;;;3.98;3.67;;;;;;;9.57;100.00;99793.59;1709257;83;21104;-76
2022/09/10 10:47:15;;;;;;;3.22;3.02;;;;;;;9.60;100.00;99791.33;1709206;83;21126;-76
2022/09/10 10:50:02;;;;;;;3.27;3.02;;;;;;;9.59;100.00;99783.91;1709293;83;21113;-78
2022/09/10 10:52:46;;;;;;;3.25;3.05;;;;;;;9.61;100.00;99782.55;1709262;83;21058;-80
2022/09/10 10:55:22;;;;;;;3.12;2.92;;;;;;;9.61;100.00;99778.16;1683398;83;21627;-79
2022/09/10 10:58:11;;;;;;;3.50;3.20;;;;;;;9.63;100.00;99775.06;1709091;83;21573;-77
2022/09/10 11:00:43;;;;;;;3.85;3.55;;;;;;;9.65;100.00;99769.30;1709079;83;21270;-76
2022/09/10 11:03:26;;;;;;;5.20;4.70;;;;;;;9.67;100.00;99774.52;1708911;83;21011;-78
2022/09/10 11:06:05;;;;;;;4.95;4.25;;;;;;;9.69;100.00;99771.85;1709466;83;21126;-78
2022/09/10 11:08:49;;;;;;;4.80;4.40;;;;;;;9.70;100.00;99772.25;1709383;83;21569;-81
2022/09/10 11:11:23;;;;;;;4.58;4.28;;;;;;;9.67;100.00;99760.92;1709634;83;21253;-79
2022/09/10 11:14:15;;;;;;;5.03;4.62;;;;;;;9.66;100.00;99759.64;1709419;83;21119;-79
2022/09/10 11:16:50;;;;;;;9.08;6.70;;;;;;;9.64;100.00;99762.31;1709334;83;21055;-78
2022/09/10 11:19:46;;;;;;;6.78;6.08;;;;;;;9.66;100.00;99757.02;1709196;83;21109;-80
2022/09/10 11:22:17;;;;;;;6.70;5.90;;;;;;;9.66;100.00;99755.24;1644842;87;21120;-80
2022/09/10 11:25:18;;;;;;;6.03;5.53;;;;;;;9.67;100.00;99752.19;1691251;84;21597;-79
2022/09/10 11:27:49;;;;;;;5.33;4.83;;;;;;;9.67;100.00;99747.78;1693097;84;21068;-78
2022/09/10 11:30:18;;;;;;;14.87;5.65;;;;;;;9.72;100.00;99742.87;1692350;84;21074;-78
2022/09/10 11:33:05;;;;;;;6.22;5.70;;;;;;;9.74;100.00;99737.12;1691749;84;21023;-82
2022/09/10 11:35:58;;;;;;;6.33;5.72;;;;;;;9.72;100.00;99736.31;1691383;84;21071;-78
2022/09/10 11:38:30;;;;;;;7.05;6.37;;;;;;;9.71;100.00;99735.42;1687629;84;21086;-77
2022/09/10 11:41:20;;;;;;;7.10;6.37;;;;;;;9.74;100.00;99735.80;1688531;84;21539;-77
2022/09/10 11:44:27;;;;;;;9.30;7.67;;;;;;;9.76;100.00;99728.73;1714624;83;21061;-77
2022/09/10 11:47:06;;;;;;;11.05;7.28;;;;;;;9.78;100.00;99722.52;1714260;83;21627;-77
2022/09/10 11:49:41;;;;;;;8.18;7.00;;;;;;;9.84;100.00;99722.81;1714828;83;21514;-77
2022/09/10 11:52:10;;;;;;;9.08;7.00;;;;;;;9.84;100.00;99721.50;1714321;83;21149;-76
2022/09/10 11:54:38;;;;;;;8.28;6.83;;;;;;;9.84;100.00;99718.87;1714589;83;21095;-77
2022/09/10 11:57:40;;;;;;;8.18;7.45;;;;;;;9.85;100.00;99720.58;1714712;83;21121;-78
2022/09/10 12:00:17;;;;;;;9.00;8.15;;;;;;;9.89;100.00;99720.91;1714301;83;21093;-77
2022/09/10 12:03:12;;;;;;;9.18;8.03;;;;;;;9.96;100.00;99721.60;1714807;83;21015;-77
2022/09/10 12:06:00;;;;;;;10.93;9.05;;;;;;;10.00;100.00;99725.84;1714743;83;21138;-76
2022/09/10 12:08:58;;;;;;;9.03;8.23;;;;;;;9.99;100.00;99718.42;1714444;83;21192;-77